Dvinskoy Bereznik, Russia
Current Conditions -  °F | °C
As of 1:00 PM on Thursday 23 Oct 2014 (Local Time) from UUYY Reporting Station
Snow Showers Snow Showers  
Wind Chill:   Ceiling: 1600
Heat Index: 19°   Visibility: 1.3mi
Dew Point: 14°   Wind: 18mph
Humidity: 80%   Direction: 20°NNE
Pressure: 29.97"   Gusts: 25mph
Location:  61.7°N, 45.53°E
Report Text: UUYY 231000Z 02008G11MPS 2200 -SHSN SCT010 BKN016CB OVC066 M07/M10 Q1015 TEMPO 0700 +SHSN 0149//41 RMK QFE752/1003
Loading
Personal Weather Stations






























Interactive Weather Map
Tropical Storm Tracking
New forecast layout! Learn more

10-Day Weather Forecast

Advertisements
Track Severe Weather on mobile